sensor_id;sensor_type;location;lat;lon;timestamp;P1;durP1;ratioP1;P2;durP2;ratioP2
16502;SDS011;53067;48.114;11.694;2023-02-23T00:01:54;9.90;;;8.43;;
16502;SDS011;53067;48.114;11.694;2023-02-23T00:04:25;11.43;;;9.13;;
16502;SDS011;53067;48.114;11.694;2023-02-23T00:06:52;12.70;;;8.80;;
16502;SDS011;53067;48.114;11.694;2023-02-23T00:09:20;9.97;;;8.57;;
16502;SDS011;53067;48.114;11.694;2023-02-23T00:11:48;9.77;;;8.13;;
16502;SDS011;53067;48.114;11.694;2023-02-23T00:14:18;11.23;;;8.30;;
16502;SDS011;53067;48.114;11.694;2023-02-23T00:16:45;10.17;;;8.43;;
16502;SDS011;53067;48.114;11.694;2023-02-23T00:19:13;11.37;;;8.10;;
16502;SDS011;53067;48.114;11.694;2023-02-23T00:21:40;11.60;;;8.37;;
16502;SDS011;53067;48.114;11.694;2023-02-23T00:24:09;10.83;;;9.10;;
16502;SDS011;53067;48.114;11.694;2023-02-23T00:26:43;12.40;;;9.13;;
16502;SDS011;53067;48.114;11.694;2023-02-23T00:29:18;10.00;;;8.43;;
16502;SDS011;53067;48.114;11.694;2023-02-23T00:31:43;13.07;;;8.90;;
16502;SDS011;53067;48.114;11.694;2023-02-23T00:34:12;11.03;;;8.30;;
16502;SDS011;53067;48.114;11.694;2023-02-23T00:36:41;11.60;;;8.97;;
16502;SDS011;53067;48.114;11.694;2023-02-23T00:39:10;10.17;;;8.30;;
16502;SDS011;53067;48.114;11.694;2023-02-23T00:41:45;10.13;;;8.77;;
16502;SDS011;53067;48.114;11.694;2023-02-23T00:44:13;13.23;;;9.00;;
16502;SDS011;53067;48.114;11.694;2023-02-23T00:46:41;10.67;;;8.73;;
16502;SDS011;53067;48.114;11.694;2023-02-23T00:49:11;12.30;;;9.13;;
16502;SDS011;53067;48.114;11.694;2023-02-23T00:51:39;10.57;;;8.70;;
16502;SDS011;53067;48.114;11.694;2023-02-23T00:54:07;11.30;;;8.50;;
16502;SDS011;53067;48.114;11.694;2023-02-23T00:56:40;12.00;;;9.13;;
16502;SDS011;53067;48.114;11.694;2023-02-23T00:59:08;14.70;;;8.90;;
16502;SDS011;53067;48.114;11.694;2023-02-23T01:01:56;11.93;;;8.57;;
16502;SDS011;53067;48.114;11.694;2023-02-23T01:04:24;10.03;;;8.43;;
16502;SDS011;53067;48.114;11.694;2023-02-23T01:06:52;12.33;;;8.67;;
16502;SDS011;53067;48.114;11.694;2023-02-23T01:09:19;11.33;;;8.37;;
16502;SDS011;53067;48.114;11.694;2023-02-23T01:11:48;10.33;;;8.37;;
16502;SDS011;53067;48.114;11.694;2023-02-23T01:14:16;11.97;;;8.83;;
16502;SDS011;53067;48.114;11.694;2023-02-23T01:16:44;11.80;;;8.87;;
16502;SDS011;53067;48.114;11.694;2023-02-23T01:19:11;10.13;;;9.00;;
16502;SDS011;53067;48.114;11.694;2023-02-23T01:21:39;15.23;;;10.10;;
16502;SDS011;53067;48.114;11.694;2023-02-23T01:24:08;13.50;;;10.03;;
16502;SDS011;53067;48.114;11.694;2023-02-23T01:26:37;13.60;;;9.10;;
16502;SDS011;53067;48.114;11.694;2023-02-23T01:29:15;11.20;;;9.43;;
16502;SDS011;53067;48.114;11.694;2023-02-23T01:31:43;12.03;;;8.97;;
16502;SDS011;53067;48.114;11.694;2023-02-23T01:34:13;10.57;;;8.90;;
16502;SDS011;53067;48.114;11.694;2023-02-23T01:37:01;14.90;;;9.43;;
16502;SDS011;53067;48.114;11.694;2023-02-23T01:39:31;14.93;;;9.50;;
16502;SDS011;53067;48.114;11.694;2023-02-23T01:41:58;16.00;;;10.67;;
16502;SDS011;53067;48.114;11.694;2023-02-23T01:47:00;11.03;;;9.57;;
16502;SDS011;53067;48.114;11.694;2023-02-23T01:49:28;11.17;;;9.50;;
16502;SDS011;53067;48.114;11.694;2023-02-23T01:52:00;13.67;;;10.47;;
16502;SDS011;53067;48.114;11.694;2023-02-23T01:54:33;14.67;;;10.67;;
16502;SDS011;53067;48.114;11.694;2023-02-23T01:57:03;13.70;;;10.40;;
16502;SDS011;53067;48.114;11.694;2023-02-23T01:59:34;13.83;;;10.17;;
16502;SDS011;53067;48.114;11.694;2023-02-23T02:02:06;13.80;;;10.63;;
16502;SDS011;53067;48.114;11.694;2023-02-23T02:04:35;12.70;;;9.53;;
16502;SDS011;53067;48.114;11.694;2023-02-23T02:07:05;16.10;;;10.03;;
16502;SDS011;53067;48.114;11.694;2023-02-23T02:09:33;12.40;;;9.90;;
16502;SDS011;53067;48.114;11.694;2023-02-23T02:12:02;16.73;;;11.03;;
16502;SDS011;53067;48.114;11.694;2023-02-23T02:14:32;13.90;;;10.60;;
16502;SDS011;53067;48.114;11.694;2023-02-23T02:25:42;12.93;;;10.33;;
16502;SDS011;53067;48.114;11.694;2023-02-23T02:28:19;13.70;;;10.87;;
16502;SDS011;53067;48.114;11.694;2023-02-23T02:33:35;15.27;;;10.57;;
16502;SDS011;53067;48.114;11.694;2023-02-23T02:36:24;14.03;;;11.27;;
16502;SDS011;53067;48.114;11.694;2023-02-23T02:39:19;16.23;;;11.67;;
16502;SDS011;53067;48.114;11.694;2023-02-23T02:42:00;13.83;;;10.83;;
16502;SDS011;53067;48.114;11.694;2023-02-23T02:44:29;17.03;;;11.80;;
16502;SDS011;53067;48.114;11.694;2023-02-23T02:46:59;13.03;;;10.33;;
16502;SDS011;53067;48.114;11.694;2023-02-23T02:49:37;15.20;;;11.27;;
16502;SDS011;53067;48.114;11.694;2023-02-23T02:52:32;14.53;;;10.87;;
16502;SDS011;53067;48.114;11.694;2023-02-23T02:55:21;15.33;;;11.83;;
16502;SDS011;53067;48.114;11.694;2023-02-23T02:57:48;16.53;;;11.80;;
16502;SDS011;53067;48.114;11.694;2023-02-23T03:00:19;16.53;;;11.40;;
16502;SDS011;53067;48.114;11.694;2023-02-23T03:03:11;15.87;;;11.70;;
16502;SDS011;53067;48.114;11.694;2023-02-23T03:05:55;16.67;;;11.67;;
16502;SDS011;53067;48.114;11.694;2023-02-23T03:08:46;13.63;;;10.93;;
16502;SDS011;53067;48.114;11.694;2023-02-23T03:11:35;15.30;;;11.10;;
16502;SDS011;53067;48.114;11.694;2023-02-23T03:14:28;14.90;;;11.60;;
16502;SDS011;53067;48.114;11.694;2023-02-23T03:17:32;16.10;;;11.13;;
16502;SDS011;53067;48.114;11.694;2023-02-23T03:23:13;13.80;;;11.03;;
16502;SDS011;53067;48.114;11.694;2023-02-23T03:26:05;15.47;;;11.30;;
16502;SDS011;53067;48.114;11.694;2023-02-23T03:28:57;15.07;;;12.23;;
16502;SDS011;53067;48.114;11.694;2023-02-23T03:31:52;18.30;;;12.67;;
16502;SDS011;53067;48.114;11.694;2023-02-23T03:34:59;14.27;;;11.10;;
16502;SDS011;53067;48.114;11.694;2023-02-23T03:37:59;15.70;;;12.23;;
16502;SDS011;53067;48.114;11.694;2023-02-23T03:40:41;18.20;;;12.50;;
16502;SDS011;53067;48.114;11.694;2023-02-23T03:43:34;14.00;;;11.50;;
16502;SDS011;53067;48.114;11.694;2023-02-23T03:46:21;15.13;;;11.80;;
16502;SDS011;53067;48.114;11.694;2023-02-23T03:49:08;16.23;;;11.63;;
16502;SDS011;53067;48.114;11.694;2023-02-23T03:51:57;15.23;;;12.03;;
16502;SDS011;53067;48.114;11.694;2023-02-23T03:54:48;17.17;;;12.53;;
16502;SDS011;53067;48.114;11.694;2023-02-23T03:57:35;13.83;;;11.70;;
16502;SDS011;53067;48.114;11.694;2023-02-23T04:00:25;14.97;;;11.40;;
16502;SDS011;53067;48.114;11.694;2023-02-23T04:03:14;13.80;;;11.37;;
16502;SDS011;53067;48.114;11.694;2023-02-23T04:06:03;13.97;;;10.63;;
16502;SDS011;53067;48.114;11.694;2023-02-23T04:08:51;13.57;;;10.87;;
16502;SDS011;53067;48.114;11.694;2023-02-23T04:11:43;15.23;;;11.53;;
16502;SDS011;53067;48.114;11.694;2023-02-23T04:14:40;14.83;;;11.37;;
16502;SDS011;53067;48.114;11.694;2023-02-23T04:17:08;15.63;;;11.30;;
16502;SDS011;53067;48.114;11.694;2023-02-23T04:19:37;15.27;;;11.10;;
16502;SDS011;53067;48.114;11.694;2023-02-23T04:22:04;16.43;;;11.90;;
16502;SDS011;53067;48.114;11.694;2023-02-23T04:24:32;13.87;;;10.87;;
16502;SDS011;53067;48.114;11.694;2023-02-23T04:26:59;14.20;;;11.60;;
16502;SDS011;53067;48.114;11.694;2023-02-23T04:29:27;14.83;;;11.63;;
16502;SDS011;53067;48.114;11.694;2023-02-23T04:31:55;17.17;;;11.63;;
16502;SDS011;53067;48.114;11.694;2023-02-23T04:34:22;12.50;;;11.17;;
16502;SDS011;53067;48.114;11.694;2023-02-23T04:36:50;16.53;;;11.67;;
16502;SDS011;53067;48.114;11.694;2023-02-23T04:39:17;15.23;;;11.33;;
16502;SDS011;53067;48.114;11.694;2023-02-23T04:41:45;13.67;;;10.80;;
16502;SDS011;53067;48.114;11.694;2023-02-23T04:44:20;15.37;;;11.40;;
16502;SDS011;53067;48.114;11.694;2023-02-23T04:46:43;15.87;;;11.63;;
16502;SDS011;53067;48.114;11.694;2023-02-23T04:49:11;14.93;;;10.50;;
16502;SDS011;53067;48.114;11.694;2023-02-23T04:51:38;12.50;;;10.20;;
16502;SDS011;53067;48.114;11.694;2023-02-23T04:54:06;14.37;;;10.93;;
16502;SDS011;53067;48.114;11.694;2023-02-23T04:56:33;12.37;;;10.10;;
16502;SDS011;53067;48.114;11.694;2023-02-23T04:59:01;16.00;;;10.60;;
16502;SDS011;53067;48.114;11.694;2023-02-23T05:01:29;16.77;;;11.23;;
16502;SDS011;53067;48.114;11.694;2023-02-23T05:03:57;16.13;;;10.40;;
16502;SDS011;53067;48.114;11.694;2023-02-23T05:06:27;12.77;;;10.63;;
16502;SDS011;53067;48.114;11.694;2023-02-23T05:08:55;13.53;;;10.70;;
16502;SDS011;53067;48.114;11.694;2023-02-23T05:11:22;13.87;;;10.93;;
16502;SDS011;53067;48.114;11.694;2023-02-23T05:13:52;14.30;;;10.60;;
16502;SDS011;53067;48.114;11.694;2023-02-23T05:16:19;15.20;;;11.10;;
16502;SDS011;53067;48.114;11.694;2023-02-23T05:18:47;13.37;;;11.27;;
16502;SDS011;53067;48.114;11.694;2023-02-23T05:21:14;15.43;;;10.80;;
16502;SDS011;53067;48.114;11.694;2023-02-23T05:23:42;17.87;;;11.57;;
16502;SDS011;53067;48.114;11.694;2023-02-23T05:26:10;14.30;;;10.80;;
16502;SDS011;53067;48.114;11.694;2023-02-23T05:28:39;14.87;;;11.27;;
16502;SDS011;53067;48.114;11.694;2023-02-23T05:31:08;16.73;;;12.13;;
16502;SDS011;53067;48.114;11.694;2023-02-23T05:33:37;16.10;;;10.93;;
16502;SDS011;53067;48.114;11.694;2023-02-23T05:36:09;16.17;;;11.23;;
16502;SDS011;53067;48.114;11.694;2023-02-23T05:38:38;15.60;;;11.03;;
16502;SDS011;53067;48.114;11.694;2023-02-23T05:41:07;14.90;;;11.30;;
16502;SDS011;53067;48.114;11.694;2023-02-23T05:43:36;16.30;;;10.97;;
16502;SDS011;53067;48.114;11.694;2023-02-23T05:46:07;14.70;;;10.97;;
16502;SDS011;53067;48.114;11.694;2023-02-23T05:48:37;15.13;;;10.27;;
16502;SDS011;53067;48.114;11.694;2023-02-23T05:51:05;15.67;;;10.87;;
16502;SDS011;53067;48.114;11.694;2023-02-23T05:53:35;14.37;;;10.70;;
16502;SDS011;53067;48.114;11.694;2023-02-23T05:56:03;14.57;;;10.33;;
16502;SDS011;53067;48.114;11.694;2023-02-23T05:58:33;14.57;;;10.90;;
16502;SDS011;53067;48.114;11.694;2023-02-23T06:01:01;14.87;;;10.47;;
16502;SDS011;53067;48.114;11.694;2023-02-23T06:03:29;14.20;;;10.90;;
16502;SDS011;53067;48.114;11.694;2023-02-23T06:05:57;15.23;;;10.73;;
16502;SDS011;53067;48.114;11.694;2023-02-23T06:08:25;17.27;;;11.80;;
16502;SDS011;53067;48.114;11.694;2023-02-23T06:10:52;13.03;;;10.33;;
16502;SDS011;53067;48.114;11.694;2023-02-23T06:13:20;13.80;;;10.53;;
16502;SDS011;53067;48.114;11.694;2023-02-23T06:15:47;13.33;;;10.33;;
16502;SDS011;53067;48.114;11.694;2023-02-23T06:18:15;14.20;;;10.63;;
16502;SDS011;53067;48.114;11.694;2023-02-23T06:20:43;15.37;;;11.03;;
16502;SDS011;53067;48.114;11.694;2023-02-23T06:23:12;12.63;;;10.07;;
16502;SDS011;53067;48.114;11.694;2023-02-23T06:25:46;13.20;;;10.13;;
16502;SDS011;53067;48.114;11.694;2023-02-23T06:28:12;15.10;;;10.67;;
16502;SDS011;53067;48.114;11.694;2023-02-23T06:30:40;14.07;;;9.97;;
16502;SDS011;53067;48.114;11.694;2023-02-23T06:33:08;15.43;;;11.13;;
16502;SDS011;53067;48.114;11.694;2023-02-23T06:35:36;16.43;;;10.67;;
16502;SDS011;53067;48.114;11.694;2023-02-23T06:38:05;20.17;;;10.70;;
16502;SDS011;53067;48.114;11.694;2023-02-23T06:40:36;15.90;;;10.80;;
16502;SDS011;53067;48.114;11.694;2023-02-23T06:43:04;16.17;;;10.00;;
16502;SDS011;53067;48.114;11.694;2023-02-23T06:45:32;15.27;;;10.70;;
16502;SDS011;53067;48.114;11.694;2023-02-23T06:48:00;13.60;;;10.50;;
16502;SDS011;53067;48.114;11.694;2023-02-23T06:50:27;12.93;;;10.33;;
16502;SDS011;53067;48.114;11.694;2023-02-23T06:52:55;12.10;;;9.87;;
16502;SDS011;53067;48.114;11.694;2023-02-23T06:55:23;15.37;;;10.70;;
16502;SDS011;53067;48.114;11.694;2023-02-23T06:57:51;14.67;;;10.10;;
16502;SDS011;53067;48.114;11.694;2023-02-23T07:00:19;13.07;;;10.90;;
16502;SDS011;53067;48.114;11.694;2023-02-23T07:02:47;13.37;;;10.53;;
16502;SDS011;53067;48.114;11.694;2023-02-23T07:05:14;15.13;;;10.00;;
16502;SDS011;53067;48.114;11.694;2023-02-23T07:07:42;12.90;;;9.87;;
16502;SDS011;53067;48.114;11.694;2023-02-23T07:10:10;16.23;;;10.13;;
16502;SDS011;53067;48.114;11.694;2023-02-23T07:12:38;14.90;;;10.13;;
16502;SDS011;53067;48.114;11.694;2023-02-23T07:15:05;14.20;;;9.90;;
16502;SDS011;53067;48.114;11.694;2023-02-23T07:17:35;12.67;;;9.57;;
16502;SDS011;53067;48.114;11.694;2023-02-23T07:20:02;14.30;;;10.37;;
16502;SDS011;53067;48.114;11.694;2023-02-23T07:22:30;20.60;;;10.70;;
16502;SDS011;53067;48.114;11.694;2023-02-23T07:24:58;18.23;;;11.43;;
16502;SDS011;53067;48.114;11.694;2023-02-23T07:27:26;19.33;;;10.87;;
16502;SDS011;53067;48.114;11.694;2023-02-23T07:29:53;17.77;;;11.10;;
16502;SDS011;53067;48.114;11.694;2023-02-23T07:32:21;12.63;;;10.47;;
16502;SDS011;53067;48.114;11.694;2023-02-23T07:34:48;18.83;;;11.83;;
16502;SDS011;53067;48.114;11.694;2023-02-23T07:37:16;16.57;;;11.30;;
16502;SDS011;53067;48.114;11.694;2023-02-23T07:39:43;14.87;;;11.23;;
16502;SDS011;53067;48.114;11.694;2023-02-23T07:42:11;13.47;;;10.90;;
16502;SDS011;53067;48.114;11.694;2023-02-23T07:44:39;12.80;;;9.93;;
16502;SDS011;53067;48.114;11.694;2023-02-23T07:47:06;14.80;;;10.30;;
16502;SDS011;53067;48.114;11.694;2023-02-23T07:49:34;14.90;;;11.27;;
16502;SDS011;53067;48.114;11.694;2023-02-23T07:52:01;16.33;;;10.63;;
16502;SDS011;53067;48.114;11.694;2023-02-23T07:54:29;16.23;;;10.77;;
16502;SDS011;53067;48.114;11.694;2023-02-23T07:56:56;15.80;;;10.37;;
16502;SDS011;53067;48.114;11.694;2023-02-23T07:59:25;15.50;;;10.70;;
16502;SDS011;53067;48.114;11.694;2023-02-23T08:01:52;14.40;;;9.93;;
16502;SDS011;53067;48.114;11.694;2023-02-23T08:04:20;13.90;;;10.90;;
16502;SDS011;53067;48.114;11.694;2023-02-23T08:06:47;15.27;;;10.57;;
16502;SDS011;53067;48.114;11.694;2023-02-23T08:09:15;18.17;;;10.67;;
16502;SDS011;53067;48.114;11.694;2023-02-23T08:11:42;15.73;;;10.93;;
16502;SDS011;53067;48.114;11.694;2023-02-23T08:14:10;16.27;;;10.63;;
16502;SDS011;53067;48.114;11.694;2023-02-23T08:16:37;14.33;;;10.33;;
16502;SDS011;53067;48.114;11.694;2023-02-23T08:19:05;17.70;;;10.43;;
16502;SDS011;53067;48.114;11.694;2023-02-23T08:21:32;17.47;;;10.60;;
16502;SDS011;53067;48.114;11.694;2023-02-23T08:24:00;14.63;;;10.87;;
16502;SDS011;53067;48.114;11.694;2023-02-23T08:26:27;14.10;;;9.97;;
16502;SDS011;53067;48.114;11.694;2023-02-23T08:28:55;19.20;;;10.50;;
16502;SDS011;53067;48.114;11.694;2023-02-23T08:31:22;15.10;;;11.30;;
16502;SDS011;53067;48.114;11.694;2023-02-23T08:33:52;14.47;;;10.70;;
16502;SDS011;53067;48.114;11.694;2023-02-23T08:36:20;16.97;;;11.70;;
16502;SDS011;53067;48.114;11.694;2023-02-23T08:38:47;18.77;;;11.80;;
16502;SDS011;53067;48.114;11.694;2023-02-23T08:41:15;14.97;;;11.27;;
16502;SDS011;53067;48.114;11.694;2023-02-23T08:43:43;16.03;;;11.07;;
16502;SDS011;53067;48.114;11.694;2023-02-23T08:46:11;19.93;;;12.13;;
16502;SDS011;53067;48.114;11.694;2023-02-23T08:48:38;14.20;;;11.10;;
16502;SDS011;53067;48.114;11.694;2023-02-23T08:51:06;17.73;;;11.80;;
16502;SDS011;53067;48.114;11.694;2023-02-23T08:53:34;13.50;;;11.47;;
16502;SDS011;53067;48.114;11.694;2023-02-23T08:56:03;16.87;;;11.53;;
16502;SDS011;53067;48.114;11.694;2023-02-23T08:58:32;17.40;;;11.47;;
16502;SDS011;53067;48.114;11.694;2023-02-23T09:01:02;18.63;;;11.80;;
16502;SDS011;53067;48.114;11.694;2023-02-23T09:03:30;14.60;;;10.57;;
16502;SDS011;53067;48.114;11.694;2023-02-23T09:06:05;16.00;;;10.73;;
16502;SDS011;53067;48.114;11.694;2023-02-23T09:08:34;15.77;;;10.87;;
16502;SDS011;53067;48.114;11.694;2023-02-23T09:11:03;18.47;;;11.67;;
16502;SDS011;53067;48.114;11.694;2023-02-23T09:13:31;17.03;;;11.13;;
16502;SDS011;53067;48.114;11.694;2023-02-23T09:15:58;14.77;;;11.10;;
16502;SDS011;53067;48.114;11.694;2023-02-23T09:18:28;13.73;;;10.27;;
16502;SDS011;53067;48.114;11.694;2023-02-23T09:20:57;13.87;;;10.40;;
16502;SDS011;53067;48.114;11.694;2023-02-23T09:23:28;14.70;;;10.30;;
16502;SDS011;53067;48.114;11.694;2023-02-23T09:25:56;13.37;;;10.43;;
16502;SDS011;53067;48.114;11.694;2023-02-23T09:28:25;16.37;;;11.20;;
16502;SDS011;53067;48.114;11.694;2023-02-23T09:30:54;12.70;;;9.93;;
16502;SDS011;53067;48.114;11.694;2023-02-23T09:33:22;12.67;;;10.83;;
16502;SDS011;53067;48.114;11.694;2023-02-23T09:35:51;17.07;;;10.07;;
16502;SDS011;53067;48.114;11.694;2023-02-23T09:38:18;14.07;;;10.93;;
16502;SDS011;53067;48.114;11.694;2023-02-23T09:40:52;13.50;;;10.60;;
16502;SDS011;53067;48.114;11.694;2023-02-23T09:43:29;15.53;;;10.37;;
16502;SDS011;53067;48.114;11.694;2023-02-23T09:46:07;12.90;;;8.77;;
16502;SDS011;53067;48.114;11.694;2023-02-23T09:48:34;15.70;;;10.27;;
16502;SDS011;53067;48.114;11.694;2023-02-23T09:51:01;14.53;;;10.50;;
16502;SDS011;53067;48.114;11.694;2023-02-23T09:53:38;13.40;;;9.40;;
16502;SDS011;53067;48.114;11.694;2023-02-23T09:56:33;10.83;;;8.90;;
16502;SDS011;53067;48.114;11.694;2023-02-23T09:59:03;12.80;;;9.70;;
16502;SDS011;53067;48.114;11.694;2023-02-23T10:07:20;12.13;;;9.10;;
16502;SDS011;53067;48.114;11.694;2023-02-23T10:15:48;12.10;;;9.63;;
16502;SDS011;53067;48.114;11.694;2023-02-23T10:18:27;13.20;;;8.80;;
16502;SDS011;53067;48.114;11.694;2023-02-23T10:21:14;13.87;;;8.70;;
16502;SDS011;53067;48.114;11.694;2023-02-23T10:23:51;14.43;;;9.57;;
16502;SDS011;53067;48.114;11.694;2023-02-23T10:26:21;13.13;;;8.53;;
16502;SDS011;53067;48.114;11.694;2023-02-23T10:28:52;10.43;;;8.20;;
16502;SDS011;53067;48.114;11.694;2023-02-23T10:31:26;12.13;;;7.77;;
16502;SDS011;53067;48.114;11.694;2023-02-23T10:33:57;10.77;;;8.87;;
16502;SDS011;53067;48.114;11.694;2023-02-23T10:36:32;10.80;;;8.63;;
16502;SDS011;53067;48.114;11.694;2023-02-23T10:39:18;9.93;;;8.00;;
16502;SDS011;53067;48.114;11.694;2023-02-23T10:41:46;10.23;;;7.93;;
16502;SDS011;53067;48.114;11.694;2023-02-23T10:44:37;10.57;;;7.83;;
16502;SDS011;53067;48.114;11.694;2023-02-23T10:47:08;12.80;;;6.80;;
16502;SDS011;53067;48.114;11.694;2023-02-23T10:49:45;9.37;;;7.90;;
16502;SDS011;53067;48.114;11.694;2023-02-23T10:52:28;8.40;;;6.83;;
16502;SDS011;53067;48.114;11.694;2023-02-23T10:55:03;9.20;;;7.40;;
16502;SDS011;53067;48.114;11.694;2023-02-23T10:57:33;8.50;;;7.10;;
16502;SDS011;53067;48.114;11.694;2023-02-23T11:02:33;8.07;;;6.57;;
16502;SDS011;53067;48.114;11.694;2023-02-23T11:05:06;8.17;;;7.10;;
16502;SDS011;53067;48.114;11.694;2023-02-23T11:07:35;9.93;;;7.00;;
16502;SDS011;53067;48.114;11.694;2023-02-23T11:12:51;9.07;;;7.90;;
16502;SDS011;53067;48.114;11.694;2023-02-23T11:15:29;9.13;;;6.80;;
16502;SDS011;53067;48.114;11.694;2023-02-23T11:18:02;8.00;;;6.70;;
16502;SDS011;53067;48.114;11.694;2023-02-23T11:20:35;7.70;;;6.60;;
16502;SDS011;53067;48.114;11.694;2023-02-23T11:26:02;7.07;;;5.70;;
16502;SDS011;53067;48.114;11.694;2023-02-23T11:28:35;10.07;;;6.47;;
16502;SDS011;53067;48.114;11.694;2023-02-23T11:31:11;10.33;;;6.80;;
16502;SDS011;53067;48.114;11.694;2023-02-23T11:33:41;11.00;;;6.33;;
16502;SDS011;53067;48.114;11.694;2023-02-23T11:36:23;8.93;;;6.27;;
16502;SDS011;53067;48.114;11.694;2023-02-23T11:39:06;11.03;;;7.13;;
16502;SDS011;53067;48.114;11.694;2023-02-23T11:41:41;10.93;;;7.83;;
16502;SDS011;53067;48.114;11.694;2023-02-23T11:44:19;10.40;;;6.97;;
16502;SDS011;53067;48.114;11.694;2023-02-23T11:46:49;7.57;;;6.83;;
16502;SDS011;53067;48.114;11.694;2023-02-23T11:49:22;7.83;;;6.50;;
16502;SDS011;53067;48.114;11.694;2023-02-23T11:51:51;8.13;;;6.20;;
16502;SDS011;53067;48.114;11.694;2023-02-23T11:54:26;7.20;;;5.90;;
16502;SDS011;53067;48.114;11.694;2023-02-23T11:56:58;7.63;;;5.77;;
16502;SDS011;53067;48.114;11.694;2023-02-23T11:59:37;6.53;;;5.83;;
16502;SDS011;53067;48.114;11.694;2023-02-23T12:05:35;7.40;;;6.20;;
16502;SDS011;53067;48.114;11.694;2023-02-23T12:07:31;5.63;;;5.13;;
16502;SDS011;53067;48.114;11.694;2023-02-23T12:10:19;7.30;;;5.43;;
16502;SDS011;53067;48.114;11.694;2023-02-23T12:15:39;7.10;;;5.03;;
16502;SDS011;53067;48.114;11.694;2023-02-23T12:18:15;5.30;;;4.70;;
16502;SDS011;53067;48.114;11.694;2023-02-23T12:20:49;4.87;;;4.47;;
16502;SDS011;53067;48.114;11.694;2023-02-23T12:23:24;5.53;;;5.03;;
16502;SDS011;53067;48.114;11.694;2023-02-23T12:25:59;5.80;;;5.20;;
16502;SDS011;53067;48.114;11.694;2023-02-23T12:28:37;5.07;;;4.43;;
16502;SDS011;53067;48.114;11.694;2023-02-23T12:31:27;4.80;;;4.40;;
16502;SDS011;53067;48.114;11.694;2023-02-23T12:34:29;6.67;;;4.40;;
16502;SDS011;53067;48.114;11.694;2023-02-23T12:42:12;4.97;;;4.43;;
16502;SDS011;53067;48.114;11.694;2023-02-23T12:44:48;4.93;;;4.47;;
16502;SDS011;53067;48.114;11.694;2023-02-23T12:50:20;3.70;;;3.40;;
16502;SDS011;53067;48.114;11.694;2023-02-23T12:52:52;4.13;;;3.73;;
16502;SDS011;53067;48.114;11.694;2023-02-23T12:55:28;4.87;;;3.80;;
16502;SDS011;53067;48.114;11.694;2023-02-23T12:58:02;6.40;;;4.13;;
16502;SDS011;53067;48.114;11.694;2023-02-23T13:03:36;4.97;;;4.53;;
16502;SDS011;53067;48.114;11.694;2023-02-23T13:08:40;5.43;;;4.90;;
16502;SDS011;53067;48.114;11.694;2023-02-23T13:11:11;4.93;;;4.40;;
16502;SDS011;53067;48.114;11.694;2023-02-23T13:16:31;5.67;;;4.93;;
16502;SDS011;53067;48.114;11.694;2023-02-23T13:19:10;6.13;;;5.53;;
16502;SDS011;53067;48.114;11.694;2023-02-23T13:21:50;7.93;;;5.17;;
16502;SDS011;53067;48.114;11.694;2023-02-23T13:24:34;6.40;;;5.23;;
16502;SDS011;53067;48.114;11.694;2023-02-23T13:29:54;6.33;;;5.13;;
16502;SDS011;53067;48.114;11.694;2023-02-23T13:32:24;5.43;;;4.80;;
16502;SDS011;53067;48.114;11.694;2023-02-23T13:35:03;5.00;;;4.57;;
16502;SDS011;53067;48.114;11.694;2023-02-23T13:37:34;5.83;;;4.73;;
16502;SDS011;53067;48.114;11.694;2023-02-23T13:40:16;6.53;;;4.70;;
16502;SDS011;53067;48.114;11.694;2023-02-23T13:43:15;5.23;;;4.57;;
16502;SDS011;53067;48.114;11.694;2023-02-23T13:48:54;4.20;;;3.70;;
16502;SDS011;53067;48.114;11.694;2023-02-23T13:51:46;7.10;;;4.57;;
16502;SDS011;53067;48.114;11.694;2023-02-23T13:54:04;5.10;;;4.60;;
16502;SDS011;53067;48.114;11.694;2023-02-23T13:56:40;6.10;;;4.83;;
16502;SDS011;53067;48.114;11.694;2023-02-23T13:59:05;11.30;;;6.90;;
16502;SDS011;53067;48.114;11.694;2023-02-23T14:01:36;7.20;;;5.77;;
16502;SDS011;53067;48.114;11.694;2023-02-23T14:04:12;5.20;;;4.40;;
16502;SDS011;53067;48.114;11.694;2023-02-23T14:06:48;5.53;;;4.80;;
16502;SDS011;53067;48.114;11.694;2023-02-23T14:09:27;5.40;;;4.63;;
16502;SDS011;53067;48.114;11.694;2023-02-23T14:12:12;4.50;;;4.10;;
16502;SDS011;53067;48.114;11.694;2023-02-23T14:14:45;4.90;;;4.43;;
16502;SDS011;53067;48.114;11.694;2023-02-23T14:20:01;6.13;;;5.00;;
16502;SDS011;53067;48.114;11.694;2023-02-23T14:22:23;7.87;;;4.57;;
16502;SDS011;53067;48.114;11.694;2023-02-23T14:27:58;6.43;;;3.90;;
16502;SDS011;53067;48.114;11.694;2023-02-23T14:30:27;4.17;;;3.77;;
16502;SDS011;53067;48.114;11.694;2023-02-23T14:33:00;4.20;;;3.63;;
16502;SDS011;53067;48.114;11.694;2023-02-23T14:38:08;8.17;;;3.90;;
16502;SDS011;53067;48.114;11.694;2023-02-23T14:40:38;3.87;;;2.97;;
16502;SDS011;53067;48.114;11.694;2023-02-23T14:45:57;5.33;;;3.40;;
16502;SDS011;53067;48.114;11.694;2023-02-23T14:48:29;3.97;;;3.17;;
16502;SDS011;53067;48.114;11.694;2023-02-23T14:51:19;3.63;;;3.20;;
16502;SDS011;53067;48.114;11.694;2023-02-23T14:53:43;6.07;;;3.30;;
16502;SDS011;53067;48.114;11.694;2023-02-23T14:56:20;3.70;;;3.23;;
16502;SDS011;53067;48.114;11.694;2023-02-23T14:58:50;3.77;;;3.47;;
16502;SDS011;53067;48.114;11.694;2023-02-23T15:04:09;5.80;;;3.47;;
16502;SDS011;53067;48.114;11.694;2023-02-23T15:06:39;8.57;;;3.53;;
16502;SDS011;53067;48.114;11.694;2023-02-23T15:09:21;4.00;;;2.97;;
16502;SDS011;53067;48.114;11.694;2023-02-23T15:11:58;3.80;;;3.03;;
16502;SDS011;53067;48.114;11.694;2023-02-23T15:14:29;6.47;;;3.10;;
16502;SDS011;53067;48.114;11.694;2023-02-23T15:16:58;4.03;;;3.00;;
16502;SDS011;53067;48.114;11.694;2023-02-23T15:19:38;3.67;;;3.20;;
16502;SDS011;53067;48.114;11.694;2023-02-23T15:22:06;5.17;;;4.13;;
16502;SDS011;53067;48.114;11.694;2023-02-23T15:24:43;3.77;;;3.30;;
16502;SDS011;53067;48.114;11.694;2023-02-23T15:27:22;3.23;;;3.03;;
16502;SDS011;53067;48.114;11.694;2023-02-23T15:29:48;7.30;;;3.60;;
16502;SDS011;53067;48.114;11.694;2023-02-23T15:32:22;3.13;;;2.73;;
16502;SDS011;53067;48.114;11.694;2023-02-23T15:34:46;4.77;;;2.87;;
16502;SDS011;53067;48.114;11.694;2023-02-23T15:39:58;3.03;;;2.73;;
16502;SDS011;53067;48.114;11.694;2023-02-23T15:42:34;3.80;;;2.83;;
16502;SDS011;53067;48.114;11.694;2023-02-23T15:44:59;5.53;;;5.00;;
16502;SDS011;53067;48.114;11.694;2023-02-23T15:47:35;6.67;;;4.47;;
16502;SDS011;53067;48.114;11.694;2023-02-23T15:50:02;4.97;;;3.57;;
16502;SDS011;53067;48.114;11.694;2023-02-23T15:52:49;8.23;;;3.23;;
16502;SDS011;53067;48.114;11.694;2023-02-23T15:55:23;4.37;;;3.60;;
16502;SDS011;53067;48.114;11.694;2023-02-23T15:57:57;3.50;;;3.20;;
16502;SDS011;53067;48.114;11.694;2023-02-23T16:00:36;5.77;;;2.63;;
16502;SDS011;53067;48.114;11.694;2023-02-23T16:03:06;3.00;;;2.70;;
16502;SDS011;53067;48.114;11.694;2023-02-23T16:05:36;4.30;;;2.70;;
16502;SDS011;53067;48.114;11.694;2023-02-23T16:08:17;3.50;;;2.90;;
16502;SDS011;53067;48.114;11.694;2023-02-23T16:10:51;2.93;;;2.70;;
16502;SDS011;53067;48.114;11.694;2023-02-23T16:13:30;2.80;;;2.50;;